Leverburgh, United Kingdom
Current Conditions -  °F | °C
As of 9:20 PM on Wednesday 26 Nov 2014 (Local Time) from EGPL Reporting Station
Clear Clear  
Wind Chill: 41°   Ceiling: Unl
Heat Index: 46°   Visibility: 6mi
Dew Point: 43°   Wind: 12mph
Humidity: 87%   Direction: 150°SSE
Pressure: 29.77"   Gusts: NA
Location:  57.77°N, 7.01°W
Report Text: EGPL 262120Z AUTO 15010KT 9999 NCD 08/06 Q1008
Loading
Personal Weather Stations






























Interactive Weather Map New forecast layout! Learn more

10-Day Weather Forecast

Advertisements
Track Severe Weather on mobile